TRA8V EHAM-LOWI
Flight info
| Callsign | TRA8V |
|---|---|
| Flight time | 1h 8m |
| Altitude | 39000 |
| Route | EDUPO Z739 MISGO DCT ASBON DCT TUSUK DCT ULNOK L607 TEDGO/N0432F350 DCT BATUB/N0413F310 M738 MADEB MADEB1B |
| Aircraft | B738/M-SDE2E3FGHIRWXY/LB1 |
Departure
| Time | 2026-05-08 08:09 |
|---|---|
| Airport | Amsterdam Airport Schiphol (EHAM) |
Arrival
| Time | 2026-05-08 09:17 |
|---|---|
| Airport | Innsbruck Airport (LOWI) |
| Time | Latitude | Longitude | Altitude | Speed | Heading |
|---|---|---|---|---|---|
| 2026-05-08 07:34 | 52.30431 | 4.76669 | -2 ft | 0 kts | 28° |
| 2026-05-08 07:58 | 52.30412 | 4.76652 | -2 ft | 3 kts | 28° |
| 2026-05-08 07:58 | 52.30396 | 4.76638 | -2 ft | 3 kts | 31° |
| 2026-05-08 07:58 | 52.30382 | 4.76616 | -2 ft | 3 kts | 78° |
| 2026-05-08 07:59 | 52.30383 | 4.76583 | -2 ft | 3 kts | 114° |
| 2026-05-08 07:59 | 52.30388 | 4.76566 | -2 ft | 1 kts | 119° |
| 2026-05-08 08:02 | 52.30371 | 4.76600 | -2 ft | 7 kts | 135° |
| 2026-05-08 08:02 | 52.30340 | 4.76699 | -2 ft | 13 kts | 124° |
| 2026-05-08 08:02 | 52.30321 | 4.76837 | -2 ft | 13 kts | 64° |
| 2026-05-08 08:02 | 52.30367 | 4.76965 | -2 ft | 13 kts | 58° |
| 2026-05-08 08:03 | 52.30417 | 4.77095 | -2 ft | 15 kts | 58° |
| 2026-05-08 08:03 | 52.30481 | 4.77263 | -2 ft | 20 kts | 57° |
| 2026-05-08 08:03 | 52.30564 | 4.77478 | -2 ft | 24 kts | 57° |
| 2026-05-08 08:03 | 52.30702 | 4.77592 | -2 ft | 23 kts | 4° |
| 2026-05-08 08:04 | 52.30858 | 4.77607 | -2 ft | 22 kts | 3° |
| 2026-05-08 08:04 | 52.31011 | 4.77621 | -2 ft | 22 kts | 2° |
| 2026-05-08 08:04 | 52.31159 | 4.77634 | -2 ft | 21 kts | 4° |
| 2026-05-08 08:04 | 52.31303 | 4.77647 | -2 ft | 21 kts | 3° |
| 2026-05-08 08:05 | 52.31450 | 4.77634 | -2 ft | 22 kts | 335° |
| 2026-05-08 08:05 | 52.31562 | 4.77459 | -2 ft | 23 kts | 295° |
| 2026-05-08 08:05 | 52.31572 | 4.77207 | -2 ft | 22 kts | 266° |
| 2026-05-08 08:05 | 52.31564 | 4.76964 | -2 ft | 21 kts | 266° |
| 2026-05-08 08:06 | 52.31555 | 4.76718 | -2 ft | 22 kts | 266° |
| 2026-05-08 08:06 | 52.31546 | 4.76449 | -2 ft | 25 kts | 266° |
| 2026-05-08 08:06 | 52.31535 | 4.76149 | -2 ft | 28 kts | 266° |
| 2026-05-08 08:06 | 52.31524 | 4.75833 | -2 ft | 27 kts | 266° |
| 2026-05-08 08:07 | 52.31514 | 4.75536 | -2 ft | 26 kts | 267° |
| 2026-05-08 08:07 | 52.31506 | 4.75256 | -2 ft | 24 kts | 267° |
| 2026-05-08 08:07 | 52.31496 | 4.74994 | -2 ft | 23 kts | 266° |
| 2026-05-08 08:07 | 52.31489 | 4.74778 | -2 ft | 11 kts | 267° |
| 2026-05-08 08:08 | 52.31508 | 4.74683 | -2 ft | 9 kts | 321° |
| 2026-05-08 08:08 | 52.31571 | 4.74663 | -2 ft | 10 kts | 356° |
| 2026-05-08 08:08 | 52.31649 | 4.74689 | -1 ft | 13 kts | 31° |
| 2026-05-08 08:08 | 52.31670 | 4.74845 | -3 ft | 24 kts | 87° |
| 2026-05-08 08:09 | 52.31695 | 4.75566 | -4 ft | 101 kts | 86° |
| 2026-05-08 08:09 | 52.31741 | 4.77046 | 65 ft | 155 kts | 88° |
| 2026-05-08 08:09 | 52.31794 | 4.78848 | 808 ft | 162 kts | 86° |
| 2026-05-08 08:09 | 52.31814 | 4.79342 | 1031 ft | 163 kts | 86° |
| 2026-05-08 08:10 | 52.31855 | 4.80209 | 1465 ft | 164 kts | 86° |
| 2026-05-08 08:10 | 52.31927 | 4.82103 | 2259 ft | 176 kts | 87° |
| 2026-05-08 08:10 | 52.31994 | 4.84216 | 2846 ft | 195 kts | 86° |
| 2026-05-08 08:11 | 52.32027 | 4.86477 | 3496 ft | 204 kts | 97° |
| 2026-05-08 08:11 | 52.31540 | 4.88795 | 3792 ft | 228 kts | 114° |
| 2026-05-08 08:11 | 52.30848 | 4.91311 | 4008 ft | 259 kts | 113° |
| 2026-05-08 08:11 | 52.30128 | 4.94046 | 4785 ft | 264 kts | 112° |
| 2026-05-08 08:12 | 52.29414 | 4.96802 | 5728 ft | 265 kts | 112° |
| 2026-05-08 08:12 | 52.28832 | 4.99706 | 6562 ft | 270 kts | 105° |
| 2026-05-08 08:12 | 52.28346 | 5.02703 | 7330 ft | 275 kts | 104° |
| 2026-05-08 08:12 | 52.27863 | 5.05787 | 8129 ft | 281 kts | 105° |
| 2026-05-08 08:13 | 52.27355 | 5.08837 | 9007 ft | 282 kts | 107° |
| 2026-05-08 08:13 | 52.26818 | 5.11957 | 9834 ft | 287 kts | 107° |
| 2026-05-08 08:13 | 52.26264 | 5.15136 | 10508 ft | 296 kts | 107° |
| 2026-05-08 08:13 | 52.25673 | 5.18508 | 10719 ft | 321 kts | 107° |
| 2026-05-08 08:14 | 52.25047 | 5.22065 | 11138 ft | 335 kts | 107° |
| 2026-05-08 08:14 | 52.24338 | 5.25740 | 11831 ft | 340 kts | 115° |
| 2026-05-08 08:14 | 52.23105 | 5.29039 | 12665 ft | 340 kts | 126° |
| 2026-05-08 08:14 | 52.21709 | 5.32184 | 13430 ft | 346 kts | 127° |
| 2026-05-08 08:15 | 52.20290 | 5.35342 | 14148 ft | 351 kts | 127° |
| 2026-05-08 08:15 | 52.18932 | 5.38390 | 14832 ft | 355 kts | 127° |
| 2026-05-08 08:15 | 52.17475 | 5.41687 | 15572 ft | 360 kts | 127° |
| 2026-05-08 08:15 | 52.16427 | 5.44076 | 16087 ft | 364 kts | 126° |
| 2026-05-08 08:16 | 52.14949 | 5.47459 | 16846 ft | 368 kts | 126° |
| 2026-05-08 08:16 | 52.13474 | 5.50841 | 17578 ft | 372 kts | 126° |
| 2026-05-08 08:16 | 52.12455 | 5.53171 | 18066 ft | 376 kts | 126° |
| 2026-05-08 08:17 | 52.07487 | 5.64508 | 19961 ft | 385 kts | 127° |
| 2026-05-08 08:17 | 52.05912 | 5.68060 | 20515 ft | 388 kts | 129° |
| 2026-05-08 08:17 | 52.04192 | 5.71463 | 21057 ft | 390 kts | 133° |
| 2026-05-08 08:18 | 52.02380 | 5.74771 | 21594 ft | 393 kts | 133° |
| 2026-05-08 08:18 | 52.00554 | 5.78098 | 22139 ft | 396 kts | 133° |
| 2026-05-08 08:18 | 51.98725 | 5.81483 | 22663 ft | 399 kts | 133° |
| 2026-05-08 08:18 | 51.96923 | 5.84849 | 23159 ft | 402 kts | 133° |
| 2026-05-08 08:19 | 51.95077 | 5.88294 | 23655 ft | 405 kts | 133° |
| 2026-05-08 08:19 | 51.93215 | 5.91761 | 24048 ft | 409 kts | 133° |
| 2026-05-08 08:19 | 51.91340 | 5.95249 | 24459 ft | 411 kts | 133° |
| 2026-05-08 08:19 | 51.89451 | 5.98758 | 24863 ft | 413 kts | 133° |
| 2026-05-08 08:20 | 51.87576 | 6.02237 | 25277 ft | 416 kts | 133° |
| 2026-05-08 08:20 | 51.85670 | 6.05766 | 25676 ft | 418 kts | 133° |
| 2026-05-08 08:20 | 51.83736 | 6.09325 | 26052 ft | 421 kts | 133° |
| 2026-05-08 08:20 | 51.81785 | 6.12893 | 26434 ft | 423 kts | 133° |
| 2026-05-08 08:21 | 51.79905 | 6.16328 | 26796 ft | 425 kts | 133° |
| 2026-05-08 08:21 | 51.77913 | 6.19964 | 27169 ft | 428 kts | 133° |
| 2026-05-08 08:21 | 51.75958 | 6.23530 | 27510 ft | 430 kts | 133° |
| 2026-05-08 08:21 | 51.73968 | 6.27163 | 27864 ft | 432 kts | 133° |
| 2026-05-08 08:22 | 51.71962 | 6.30825 | 28212 ft | 435 kts | 133° |
| 2026-05-08 08:22 | 51.69974 | 6.34450 | 28546 ft | 437 kts | 133° |
| 2026-05-08 08:22 | 51.67950 | 6.38139 | 28877 ft | 439 kts | 133° |
| 2026-05-08 08:22 | 51.65911 | 6.41847 | 29202 ft | 441 kts | 134° |
| 2026-05-08 08:23 | 51.63860 | 6.45569 | 29514 ft | 443 kts | 134° |
| 2026-05-08 08:23 | 51.61835 | 6.49236 | 29819 ft | 445 kts | 134° |
| 2026-05-08 08:23 | 51.59765 | 6.52980 | 30118 ft | 448 kts | 134° |
| 2026-05-08 08:23 | 51.57693 | 6.56723 | 30375 ft | 450 kts | 134° |
| 2026-05-08 08:24 | 51.55620 | 6.60463 | 30626 ft | 451 kts | 134° |
| 2026-05-08 08:24 | 51.53525 | 6.64239 | 30884 ft | 453 kts | 134° |
| 2026-05-08 08:24 | 51.51421 | 6.68027 | 31128 ft | 454 kts | 134° |
| 2026-05-08 08:24 | 51.49314 | 6.71814 | 31357 ft | 456 kts | 134° |
| 2026-05-08 08:25 | 51.47193 | 6.75622 | 31605 ft | 458 kts | 134° |
| 2026-05-08 08:25 | 51.45070 | 6.79430 | 31940 ft | 457 kts | 134° |
| 2026-05-08 08:25 | 51.42942 | 6.83237 | 32313 ft | 455 kts | 134° |
| 2026-05-08 08:25 | 51.40798 | 6.86863 | 32648 ft | 452 kts | 140° |
| 2026-05-08 08:26 | 51.38342 | 6.89997 | 32935 ft | 449 kts | 149° |
| 2026-05-08 08:26 | 51.35704 | 6.92667 | 33262 ft | 448 kts | 151° |
| 2026-05-08 08:26 | 51.33040 | 6.95285 | 33604 ft | 447 kts | 151° |
| 2026-05-08 08:26 | 51.30392 | 6.97875 | 33927 ft | 447 kts | 151° |
| 2026-05-08 08:27 | 51.27765 | 7.00458 | 34224 ft | 447 kts | 151° |
| 2026-05-08 08:27 | 51.25123 | 7.03074 | 34481 ft | 446 kts | 151° |
| 2026-05-08 08:27 | 51.22473 | 7.05712 | 34706 ft | 447 kts | 151° |
| 2026-05-08 08:27 | 51.19855 | 7.08325 | 34937 ft | 448 kts | 151° |
| 2026-05-08 08:28 | 51.17206 | 7.10971 | 35181 ft | 448 kts | 150° |
| 2026-05-08 08:28 | 51.14556 | 7.13616 | 35421 ft | 448 kts | 150° |
| 2026-05-08 08:28 | 51.11910 | 7.16255 | 35649 ft | 448 kts | 151° |
| 2026-05-08 08:28 | 51.09256 | 7.18896 | 35892 ft | 449 kts | 150° |
| 2026-05-08 08:29 | 51.06606 | 7.21530 | 36120 ft | 449 kts | 151° |
| 2026-05-08 08:29 | 51.03987 | 7.24129 | 36347 ft | 449 kts | 150° |
| 2026-05-08 08:29 | 51.01334 | 7.26757 | 36586 ft | 449 kts | 151° |
| 2026-05-08 08:29 | 50.98679 | 7.29384 | 36807 ft | 449 kts | 151° |
| 2026-05-08 08:30 | 50.96026 | 7.32006 | 37041 ft | 449 kts | 151° |
| 2026-05-08 08:30 | 50.93367 | 7.34629 | 37271 ft | 449 kts | 151° |
| 2026-05-08 08:30 | 50.88045 | 7.39870 | 37713 ft | 449 kts | 151° |
| 2026-05-08 08:31 | 50.85417 | 7.42453 | 37919 ft | 449 kts | 151° |
| 2026-05-08 08:31 | 50.82761 | 7.45060 | 38154 ft | 449 kts | 151° |
| 2026-05-08 08:31 | 50.80090 | 7.47678 | 38354 ft | 449 kts | 151° |
| 2026-05-08 08:31 | 50.77426 | 7.50287 | 38560 ft | 449 kts | 151° |
| 2026-05-08 08:32 | 50.74760 | 7.52894 | 38765 ft | 449 kts | 151° |
| 2026-05-08 08:32 | 50.72129 | 7.55464 | 38922 ft | 449 kts | 150° |
| 2026-05-08 08:32 | 50.70344 | 7.57250 | 39020 ft | 449 kts | 150° |
| 2026-05-08 08:33 | 50.64430 | 7.63384 | 39124 ft | 453 kts | 149° |
| 2026-05-08 08:33 | 50.61849 | 7.66083 | 39131 ft | 452 kts | 149° |
| 2026-05-08 08:33 | 50.56564 | 7.71406 | 39129 ft | 448 kts | 153° |
| 2026-05-08 08:34 | 50.51120 | 7.76128 | 39129 ft | 445 kts | 154° |
| 2026-05-08 08:34 | 50.45680 | 7.80706 | 39129 ft | 443 kts | 154° |
| 2026-05-08 08:35 | 50.40292 | 7.85301 | 39139 ft | 442 kts | 154° |
| 2026-05-08 08:35 | 50.34897 | 7.89943 | 39136 ft | 442 kts | 154° |
| 2026-05-08 08:36 | 50.29480 | 7.94607 | 39125 ft | 443 kts | 154° |
| 2026-05-08 08:36 | 50.24089 | 7.99237 | 39137 ft | 444 kts | 154° |
| 2026-05-08 08:37 | 50.18642 | 8.03902 | 39133 ft | 446 kts | 154° |
| 2026-05-08 08:37 | 50.13221 | 8.08532 | 39139 ft | 447 kts | 154° |
| 2026-05-08 08:38 | 50.07748 | 8.13194 | 39137 ft | 449 kts | 154° |
| 2026-05-08 08:38 | 50.02246 | 8.17868 | 39135 ft | 450 kts | 154° |
| 2026-05-08 08:39 | 49.96743 | 8.22531 | 39135 ft | 451 kts | 154° |
| 2026-05-08 08:39 | 49.91251 | 8.27173 | 39133 ft | 451 kts | 154° |
| 2026-05-08 08:40 | 49.85730 | 8.31826 | 39132 ft | 451 kts | 155° |
| 2026-05-08 08:40 | 49.80243 | 8.36440 | 39125 ft | 451 kts | 155° |
| 2026-05-08 08:41 | 49.74720 | 8.41071 | 39118 ft | 450 kts | 155° |
| 2026-05-08 08:41 | 49.69211 | 8.45679 | 39121 ft | 449 kts | 155° |
| 2026-05-08 08:42 | 49.63752 | 8.50233 | 39123 ft | 448 kts | 155° |
| 2026-05-08 08:42 | 49.58247 | 8.54813 | 39127 ft | 448 kts | 155° |
| 2026-05-08 08:43 | 49.52788 | 8.59343 | 39131 ft | 447 kts | 155° |
| 2026-05-08 08:43 | 49.47306 | 8.63881 | 39139 ft | 446 kts | 155° |
| 2026-05-08 08:44 | 49.42750 | 8.67644 | 39120 ft | 446 kts | 155° |
| 2026-05-08 08:44 | 49.37263 | 8.72164 | 39130 ft | 446 kts | 155° |
| 2026-05-08 08:45 | 49.31820 | 8.76638 | 39123 ft | 446 kts | 155° |
| 2026-05-08 08:45 | 49.26333 | 8.81138 | 39107 ft | 447 kts | 155° |
| 2026-05-08 08:46 | 49.20869 | 8.85607 | 39100 ft | 447 kts | 155° |
| 2026-05-08 08:46 | 49.15277 | 8.89751 | 39099 ft | 445 kts | 159° |
| 2026-05-08 08:47 | 49.09593 | 8.93563 | 39095 ft | 445 kts | 160° |
| 2026-05-08 08:47 | 49.03913 | 8.97377 | 39096 ft | 446 kts | 159° |
| 2026-05-08 08:48 | 48.98268 | 9.01213 | 39091 ft | 446 kts | 159° |
| 2026-05-08 08:48 | 48.92588 | 9.05084 | 39093 ft | 446 kts | 159° |
| 2026-05-08 08:49 | 48.86946 | 9.08921 | 39099 ft | 446 kts | 159° |
| 2026-05-08 08:49 | 48.81256 | 9.12779 | 39098 ft | 447 kts | 159° |
| 2026-05-08 08:50 | 48.75607 | 9.16599 | 39100 ft | 447 kts | 159° |
| 2026-05-08 08:50 | 48.69910 | 9.20443 | 39103 ft | 447 kts | 159° |
| 2026-05-08 08:51 | 48.64322 | 9.24208 | 39078 ft | 429 kts | 159° |
| 2026-05-08 08:51 | 48.61639 | 9.25995 | 39077 ft | 413 kts | 162° |
| 2026-05-08 08:51 | 48.58996 | 9.27483 | 39085 ft | 398 kts | 165° |
| 2026-05-08 08:52 | 48.53758 | 9.30135 | 39100 ft | 401 kts | 165° |
| 2026-05-08 08:52 | 48.48420 | 9.32798 | 39103 ft | 410 kts | 165° |
| 2026-05-08 08:53 | 48.43594 | 9.35243 | 38827 ft | 411 kts | 165° |
| 2026-05-08 08:53 | 48.42962 | 9.35565 | 38673 ft | 412 kts | 165° |
| 2026-05-08 08:54 | 48.40220 | 9.36964 | 37808 ft | 419 kts | 165° |
| 2026-05-08 08:54 | 48.37435 | 9.38384 | 36939 ft | 426 kts | 164° |
| 2026-05-08 08:54 | 48.34598 | 9.39831 | 36167 ft | 431 kts | 164° |
| 2026-05-08 08:54 | 48.31756 | 9.41281 | 35682 ft | 429 kts | 164° |
| 2026-05-08 08:55 | 48.28980 | 9.42698 | 35363 ft | 423 kts | 164° |
| 2026-05-08 08:55 | 48.26211 | 9.44109 | 35027 ft | 417 kts | 164° |
| 2026-05-08 08:55 | 48.23477 | 9.45500 | 34663 ft | 413 kts | 164° |
| 2026-05-08 08:55 | 48.20764 | 9.46876 | 34280 ft | 409 kts | 164° |
| 2026-05-08 08:56 | 48.18074 | 9.48238 | 33891 ft | 405 kts | 164° |
| 2026-05-08 08:56 | 48.15406 | 9.49588 | 33290 ft | 405 kts | 164° |
| 2026-05-08 08:56 | 48.12687 | 9.50959 | 32160 ft | 418 kts | 165° |
| 2026-05-08 08:56 | 48.09937 | 9.52346 | 31320 ft | 424 kts | 165° |
| 2026-05-08 08:57 | 48.07125 | 9.53765 | 30639 ft | 426 kts | 165° |
| 2026-05-08 08:57 | 48.04311 | 9.55186 | 30101 ft | 424 kts | 164° |
| 2026-05-08 08:57 | 48.01596 | 9.56900 | 29572 ft | 423 kts | 156° |
| 2026-05-08 08:57 | 47.99131 | 9.59202 | 29048 ft | 421 kts | 148° |
| 2026-05-08 08:58 | 47.96768 | 9.61769 | 28505 ft | 418 kts | 147° |
| 2026-05-08 08:58 | 47.94422 | 9.64356 | 27927 ft | 416 kts | 147° |
| 2026-05-08 08:58 | 47.92130 | 9.66883 | 27383 ft | 413 kts | 147° |
| 2026-05-08 08:58 | 47.90097 | 9.69111 | 26931 ft | 410 kts | 147° |
| 2026-05-08 08:59 | 47.88241 | 9.71131 | 26523 ft | 408 kts | 147° |
| 2026-05-08 08:59 | 47.85972 | 9.73588 | 26025 ft | 405 kts | 147° |
| 2026-05-08 08:59 | 47.83696 | 9.76041 | 25537 ft | 402 kts | 147° |
| 2026-05-08 08:59 | 47.81434 | 9.78473 | 25068 ft | 399 kts | 147° |
| 2026-05-08 09:00 | 47.79181 | 9.80890 | 24588 ft | 396 kts | 147° |
| 2026-05-08 09:00 | 47.76979 | 9.83249 | 24133 ft | 393 kts | 147° |
| 2026-05-08 09:00 | 47.74747 | 9.85637 | 23676 ft | 391 kts | 147° |
| 2026-05-08 09:00 | 47.72547 | 9.87990 | 23151 ft | 388 kts | 147° |
| 2026-05-08 09:01 | 47.70384 | 9.90300 | 22553 ft | 388 kts | 147° |
| 2026-05-08 09:01 | 47.68200 | 9.92631 | 22056 ft | 384 kts | 147° |
| 2026-05-08 09:01 | 47.66020 | 9.94955 | 21572 ft | 381 kts | 147° |
| 2026-05-08 09:01 | 47.63872 | 9.97243 | 21116 ft | 378 kts | 147° |
| 2026-05-08 09:02 | 47.61766 | 9.99484 | 20655 ft | 375 kts | 147° |
| 2026-05-08 09:02 | 47.59645 | 10.01737 | 20204 ft | 372 kts | 147° |
| 2026-05-08 09:02 | 47.57540 | 10.03973 | 19754 ft | 370 kts | 147° |
| 2026-05-08 09:02 | 47.55455 | 10.06184 | 19313 ft | 368 kts | 147° |
| 2026-05-08 09:03 | 47.53400 | 10.08362 | 18866 ft | 366 kts | 146° |
| 2026-05-08 09:03 | 47.51332 | 10.10552 | 18429 ft | 364 kts | 146° |
| 2026-05-08 09:03 | 47.49275 | 10.12729 | 17910 ft | 363 kts | 146° |
| 2026-05-08 09:03 | 47.47230 | 10.14890 | 17441 ft | 360 kts | 146° |
| 2026-05-08 09:04 | 47.45261 | 10.16967 | 16998 ft | 357 kts | 146° |
| 2026-05-08 09:04 | 47.43229 | 10.19061 | 16555 ft | 354 kts | 148° |
| 2026-05-08 09:04 | 47.41147 | 10.20985 | 16268 ft | 347 kts | 150° |
| 2026-05-08 09:04 | 47.39131 | 10.22792 | 16112 ft | 336 kts | 150° |
| 2026-05-08 09:05 | 47.37159 | 10.24570 | 15969 ft | 326 kts | 150° |
| 2026-05-08 09:05 | 47.35252 | 10.26301 | 15834 ft | 316 kts | 150° |
| 2026-05-08 09:05 | 47.33466 | 10.28108 | 15699 ft | 310 kts | 137° |
| 2026-05-08 09:05 | 47.32255 | 10.30643 | 15563 ft | 304 kts | 114° |
| 2026-05-08 09:06 | 47.31688 | 10.33595 | 15481 ft | 295 kts | 103° |
| 2026-05-08 09:06 | 47.31293 | 10.36545 | 15330 ft | 290 kts | 101° |
| 2026-05-08 09:06 | 47.30928 | 10.39432 | 15207 ft | 282 kts | 101° |
| 2026-05-08 09:06 | 47.30568 | 10.42245 | 15099 ft | 275 kts | 101° |
| 2026-05-08 09:07 | 47.30206 | 10.45000 | 14905 ft | 272 kts | 102° |
| 2026-05-08 09:07 | 47.29844 | 10.47704 | 14661 ft | 272 kts | 102° |
| 2026-05-08 09:07 | 47.29472 | 10.50437 | 14408 ft | 271 kts | 102° |
| 2026-05-08 09:07 | 47.29099 | 10.53164 | 14157 ft | 271 kts | 102° |
| 2026-05-08 09:08 | 47.28724 | 10.55897 | 13886 ft | 272 kts | 102° |
| 2026-05-08 09:08 | 47.28550 | 10.58656 | 13596 ft | 271 kts | 88° |
| 2026-05-08 09:08 | 47.28685 | 10.61388 | 13323 ft | 270 kts | 84° |
| 2026-05-08 09:08 | 47.28861 | 10.64135 | 13032 ft | 270 kts | 84° |
| 2026-05-08 09:09 | 47.29037 | 10.66923 | 12598 ft | 275 kts | 85° |
| 2026-05-08 09:09 | 47.29197 | 10.69764 | 12178 ft | 280 kts | 85° |
| 2026-05-08 09:09 | 47.29354 | 10.72648 | 11737 ft | 285 kts | 85° |
| 2026-05-08 09:09 | 47.29506 | 10.75567 | 11293 ft | 285 kts | 85° |
| 2026-05-08 09:10 | 47.29653 | 10.78453 | 10842 ft | 285 kts | 85° |
| 2026-05-08 09:10 | 47.29799 | 10.81364 | 10381 ft | 285 kts | 86° |
| 2026-05-08 09:10 | 47.29946 | 10.84287 | 9894 ft | 285 kts | 85° |
| 2026-05-08 09:10 | 47.30091 | 10.87205 | 9389 ft | 284 kts | 86° |
| 2026-05-08 09:11 | 47.30234 | 10.90099 | 8921 ft | 281 kts | 86° |
| 2026-05-08 09:11 | 47.30372 | 10.92915 | 8488 ft | 278 kts | 86° |
| 2026-05-08 09:11 | 47.30511 | 10.95746 | 8048 ft | 274 kts | 86° |
| 2026-05-08 09:11 | 47.30646 | 10.98529 | 7616 ft | 266 kts | 86° |
| 2026-05-08 09:12 | 47.30774 | 11.01183 | 7190 ft | 252 kts | 86° |
| 2026-05-08 09:12 | 47.30893 | 11.03655 | 6845 ft | 236 kts | 86° |
| 2026-05-08 09:12 | 47.30986 | 11.05985 | 6494 ft | 220 kts | 90° |
| 2026-05-08 09:12 | 47.30781 | 11.08140 | 6117 ft | 205 kts | 108° |
| 2026-05-08 09:13 | 47.30213 | 11.09981 | 5789 ft | 192 kts | 117° |
| 2026-05-08 09:13 | 47.29618 | 11.11687 | 5505 ft | 181 kts | 117° |
| 2026-05-08 09:13 | 47.29058 | 11.13326 | 5239 ft | 178 kts | 116° |
| 2026-05-08 09:13 | 47.28520 | 11.14928 | 5002 ft | 170 kts | 116° |
| 2026-05-08 09:14 | 47.28004 | 11.16472 | 4751 ft | 165 kts | 116° |
| 2026-05-08 09:14 | 47.27525 | 11.17914 | 4514 ft | 149 kts | 116° |
| 2026-05-08 09:14 | 47.27078 | 11.19267 | 4245 ft | 145 kts | 116° |
| 2026-05-08 09:14 | 47.26635 | 11.20603 | 4002 ft | 145 kts | 116° |
| 2026-05-08 09:15 | 47.26195 | 11.21934 | 3795 ft | 145 kts | 116° |
| 2026-05-08 09:15 | 47.25753 | 11.23271 | 3605 ft | 144 kts | 116° |
| 2026-05-08 09:15 | 47.25338 | 11.24584 | 3439 ft | 141 kts | 112° |
| 2026-05-08 09:15 | 47.25060 | 11.25973 | 3258 ft | 144 kts | 95° |
| 2026-05-08 09:16 | 47.25170 | 11.27438 | 3035 ft | 145 kts | 76° |
| 2026-05-08 09:16 | 47.25401 | 11.28840 | 2759 ft | 143 kts | 77° |
| 2026-05-08 09:16 | 47.25581 | 11.30272 | 2477 ft | 143 kts | 81° |
| 2026-05-08 09:16 | 47.25734 | 11.31712 | 2199 ft | 142 kts | 81° |
| 2026-05-08 09:17 | 47.25887 | 11.33138 | 1967 ft | 140 kts | 81° |
| 2026-05-08 09:17 | 47.26026 | 11.34452 | 1899 ft | 107 kts | 80° |
| 2026-05-08 09:17 | 47.26110 | 11.35220 | 1898 ft | 45 kts | 81° |
| 2026-05-08 09:17 | 47.26140 | 11.35510 | 1894 ft | 17 kts | 82° |
| 2026-05-08 09:18 | 47.26125 | 11.35634 | 1901 ft | 10 kts | 89° |
| 2026-05-08 09:18 | 47.26158 | 11.35662 | 1899 ft | 3 kts | 326° |
| 2026-05-08 09:18 | 47.26158 | 11.35630 | 1897 ft | 4 kts | 259° |
| 2026-05-08 09:18 | 47.26149 | 11.35560 | 1901 ft | 11 kts | 259° |
| 2026-05-08 09:19 | 47.26130 | 11.35407 | 1899 ft | 19 kts | 261° |
| 2026-05-08 09:19 | 47.26101 | 11.35265 | 1894 ft | 12 kts | 215° |
| 2026-05-08 09:19 | 47.26017 | 11.35267 | 1904 ft | 12 kts | 171° |
| 2026-05-08 09:19 | 47.25935 | 11.35287 | 1899 ft | 12 kts | 173° |
| 2026-05-08 09:20 | 47.25891 | 11.35205 | 1899 ft | 8 kts | 257° |